sensor_id;sensor_type;location;lat;lon;timestamp;pressure;altitude;pressure_sealevel;temperature;humidity
56876;BME280;42622;49.972;8.452;2023-03-19T00:00:29;100341.06;;;8.17;100.00
56876;BME280;42622;49.972;8.452;2023-03-19T00:02:56;100349.53;;;8.22;100.00
56876;BME280;42622;49.972;8.452;2023-03-19T00:05:21;100348.59;;;8.23;100.00
56876;BME280;42622;49.972;8.452;2023-03-19T00:07:47;100347.66;;;8.24;100.00
56876;BME280;42622;49.972;8.452;2023-03-19T00:10:13;100348.59;;;8.23;100.00
56876;BME280;42622;49.972;8.452;2023-03-19T00:12:40;100343.31;;;8.23;100.00
56876;BME280;42622;49.972;8.452;2023-03-19T00:15:06;100346.91;;;8.22;100.00
56876;BME280;42622;49.972;8.452;2023-03-19T00:17:36;100339.00;;;8.22;100.00
56876;BME280;42622;49.972;8.452;2023-03-19T00:20:02;100352.06;;;8.23;100.00
56876;BME280;42622;49.972;8.452;2023-03-19T00:22:29;100352.84;;;8.25;100.00
56876;BME280;42622;49.972;8.452;2023-03-19T00:24:55;100355.19;;;8.30;100.00
56876;BME280;42622;49.972;8.452;2023-03-19T00:27:20;100354.09;;;8.34;100.00
56876;BME280;42622;49.972;8.452;2023-03-19T00:29:46;100350.50;;;8.35;100.00
56876;BME280;42622;49.972;8.452;2023-03-19T00:32:12;100359.16;;;8.37;100.00
56876;BME280;42622;49.972;8.452;2023-03-19T00:34:39;100351.34;;;8.35;100.00
56876;BME280;42622;49.972;8.452;2023-03-19T00:37:05;100345.25;;;8.35;100.00
56876;BME280;42622;49.972;8.452;2023-03-19T00:39:31;100353.16;;;8.35;100.00
56876;BME280;42622;49.972;8.452;2023-03-19T00:41:57;100362.00;;;8.34;100.00
56876;BME280;42622;49.972;8.452;2023-03-19T00:44:23;100358.00;;;8.27;100.00
56876;BME280;42622;49.972;8.452;2023-03-19T00:46:48;100358.88;;;8.27;100.00
56876;BME280;42622;49.972;8.452;2023-03-19T00:49:15;100359.13;;;8.23;100.00
56876;BME280;42622;49.972;8.452;2023-03-19T00:51:40;100354.97;;;8.19;100.00
56876;BME280;42622;49.972;8.452;2023-03-19T00:54:10;100361.38;;;8.14;100.00
56876;BME280;42622;49.972;8.452;2023-03-19T00:56:37;100360.81;;;8.09;100.00
56876;BME280;42622;49.972;8.452;2023-03-19T00:59:03;100359.47;;;8.02;100.00
56876;BME280;42622;49.972;8.452;2023-03-19T01:01:28;100368.44;;;7.98;100.00
56876;BME280;42622;49.972;8.452;2023-03-19T01:03:54;100366.38;;;7.89;100.00
56876;BME280;42622;49.972;8.452;2023-03-19T01:06:21;100363.13;;;7.84;100.00
56876;BME280;42622;49.972;8.452;2023-03-19T01:08:47;100368.84;;;7.76;100.00
56876;BME280;42622;49.972;8.452;2023-03-19T01:11:14;100364.81;;;7.71;100.00
56876;BME280;42622;49.972;8.452;2023-03-19T01:13:41;100370.81;;;7.73;100.00
56876;BME280;42622;49.972;8.452;2023-03-19T01:16:08;100367.22;;;7.74;100.00
56876;BME280;42622;49.972;8.452;2023-03-19T01:18:35;100364.59;;;7.74;100.00
56876;BME280;42622;49.972;8.452;2023-03-19T01:21:02;100359.72;;;7.68;100.00
56876;BME280;42622;49.972;8.452;2023-03-19T01:23:29;100360.31;;;7.57;100.00
56876;BME280;42622;49.972;8.452;2023-03-19T01:25:55;100365.13;;;7.49;100.00
56876;BME280;42622;49.972;8.452;2023-03-19T01:28:22;100359.63;;;7.37;100.00
56876;BME280;42622;49.972;8.452;2023-03-19T01:30:48;100356.50;;;7.31;100.00
56876;BME280;42622;49.972;8.452;2023-03-19T01:33:14;100355.91;;;7.26;100.00
56876;BME280;42622;49.972;8.452;2023-03-19T01:35:40;100355.31;;;7.21;100.00
56876;BME280;42622;49.972;8.452;2023-03-19T01:38:07;100353.44;;;7.23;100.00
56876;BME280;42622;49.972;8.452;2023-03-19T01:40:33;100346.56;;;7.20;100.00
56876;BME280;42622;49.972;8.452;2023-03-19T01:45:42;100356.25;;;7.19;100.00
56876;BME280;42622;49.972;8.452;2023-03-19T01:50:47;100341.41;;;7.18;100.00
56876;BME280;42622;49.972;8.452;2023-03-19T01:53:23;100349.38;;;7.17;100.00
56876;BME280;42622;49.972;8.452;2023-03-19T01:56:02;100348.34;;;7.19;100.00
56876;BME280;42622;49.972;8.452;2023-03-19T01:58:31;100344.97;;;7.17;100.00
56876;BME280;42622;49.972;8.452;2023-03-19T02:00:57;100343.88;;;7.22;100.00
56876;BME280;42622;49.972;8.452;2023-03-19T02:03:25;100345.66;;;7.21;100.00
56876;BME280;42622;49.972;8.452;2023-03-19T02:05:54;100345.56;;;7.23;100.00
56876;BME280;42622;49.972;8.452;2023-03-19T02:08:24;100348.28;;;7.21;100.00
56876;BME280;42622;49.972;8.452;2023-03-19T02:10:52;100346.75;;;7.17;100.00
56876;BME280;42622;49.972;8.452;2023-03-19T02:13:21;100357.19;;;7.18;100.00
56876;BME280;42622;49.972;8.452;2023-03-19T02:15:49;100361.66;;;7.16;100.00
56876;BME280;42622;49.972;8.452;2023-03-19T02:18:16;100359.13;;;7.15;100.00
56876;BME280;42622;49.972;8.452;2023-03-19T02:24:05;100364.47;;;7.13;100.00
56876;BME280;42622;49.972;8.452;2023-03-19T02:26:39;100366.34;;;7.11;100.00
56876;BME280;42622;49.972;8.452;2023-03-19T02:29:07;100364.66;;;7.10;100.00
56876;BME280;42622;49.972;8.452;2023-03-19T02:31:32;100361.41;;;7.05;100.00
56876;BME280;42622;49.972;8.452;2023-03-19T02:34:03;100359.88;;;7.01;100.00
56876;BME280;42622;49.972;8.452;2023-03-19T02:36:37;100353.94;;;6.98;100.00
56876;BME280;42622;49.972;8.452;2023-03-19T02:39:33;100362.94;;;6.93;100.00
56876;BME280;42622;49.972;8.452;2023-03-19T02:42:04;100359.47;;;6.93;100.00
56876;BME280;42622;49.972;8.452;2023-03-19T02:44:31;100359.25;;;6.96;100.00
56876;BME280;42622;49.972;8.452;2023-03-19T02:46:56;100357.50;;;6.97;100.00
56876;BME280;42622;49.972;8.452;2023-03-19T02:49:25;100353.94;;;6.98;100.00
56876;BME280;42622;49.972;8.452;2023-03-19T02:51:50;100360.81;;;7.00;100.00
56876;BME280;42622;49.972;8.452;2023-03-19T02:54:16;100360.03;;;6.98;100.00
56876;BME280;42622;49.972;8.452;2023-03-19T02:56:42;100353.84;;;6.99;100.00
56876;BME280;42622;49.972;8.452;2023-03-19T02:59:08;100354.72;;;7.00;100.00
56876;BME280;42622;49.972;8.452;2023-03-19T03:01:34;100359.19;;;6.98;100.00
56876;BME280;42622;49.972;8.452;2023-03-19T03:04:00;100350.63;;;6.94;100.00
56876;BME280;42622;49.972;8.452;2023-03-19T03:06:25;100362.25;;;6.90;100.00
56876;BME280;42622;49.972;8.452;2023-03-19T03:08:51;100362.41;;;6.87;100.00
56876;BME280;42622;49.972;8.452;2023-03-19T03:11:17;100364.41;;;6.82;100.00
56876;BME280;42622;49.972;8.452;2023-03-19T03:13:42;100367.13;;;6.80;100.00
56876;BME280;42622;49.972;8.452;2023-03-19T03:16:08;100374.16;;;6.80;100.00
56876;BME280;42622;49.972;8.452;2023-03-19T03:18:34;100376.03;;;6.78;100.00
56876;BME280;42622;49.972;8.452;2023-03-19T03:21:00;100383.06;;;6.77;100.00
56876;BME280;42622;49.972;8.452;2023-03-19T03:23:26;100384.75;;;6.78;100.00
56876;BME280;42622;49.972;8.452;2023-03-19T03:25:52;100383.59;;;6.84;100.00
56876;BME280;42622;49.972;8.452;2023-03-19T03:28:18;100380.19;;;6.82;100.00
56876;BME280;42622;49.972;8.452;2023-03-19T03:30:45;100378.50;;;6.81;100.00
56876;BME280;42622;49.972;8.452;2023-03-19T03:33:13;100388.25;;;6.79;100.00
56876;BME280;42622;49.972;8.452;2023-03-19T03:35:40;100380.53;;;6.76;100.00
56876;BME280;42622;49.972;8.452;2023-03-19T03:38:05;100378.75;;;6.76;100.00
56876;BME280;42622;49.972;8.452;2023-03-19T03:40:31;100383.22;;;6.74;100.00
56876;BME280;42622;49.972;8.452;2023-03-19T03:42:58;100383.16;;;6.76;100.00
56876;BME280;42622;49.972;8.452;2023-03-19T03:45:24;100383.31;;;6.73;100.00
56876;BME280;42622;49.972;8.452;2023-03-19T03:47:51;100384.25;;;6.72;100.00
56876;BME280;42622;49.972;8.452;2023-03-19T03:50:17;100388.63;;;6.71;100.00
56876;BME280;42622;49.972;8.452;2023-03-19T03:52:43;100401.75;;;6.71;100.00
56876;BME280;42622;49.972;8.452;2023-03-19T03:55:09;100402.78;;;6.68;100.00
56876;BME280;42622;49.972;8.452;2023-03-19T03:57:35;100402.16;;;6.63;100.00
56876;BME280;42622;49.972;8.452;2023-03-19T04:00:03;100398.09;;;6.58;100.00
56876;BME280;42622;49.972;8.452;2023-03-19T04:02:30;100398.25;;;6.55;100.00
56876;BME280;42622;49.972;8.452;2023-03-19T04:04:56;100401.88;;;6.52;100.00
56876;BME280;42622;49.972;8.452;2023-03-19T04:07:22;100401.03;;;6.52;100.00
56876;BME280;42622;49.972;8.452;2023-03-19T04:09:47;100404.50;;;6.52;100.00
56876;BME280;42622;49.972;8.452;2023-03-19T04:12:15;100408.06;;;6.51;100.00
56876;BME280;42622;49.972;8.452;2023-03-19T04:14:40;100408.91;;;6.52;100.00
56876;BME280;42622;49.972;8.452;2023-03-19T04:17:07;100414.94;;;6.54;100.00
56876;BME280;42622;49.972;8.452;2023-03-19T04:19:33;100416.69;;;6.53;100.00
56876;BME280;42622;49.972;8.452;2023-03-19T04:21:58;100420.09;;;6.55;100.00
56876;BME280;42622;49.972;8.452;2023-03-19T04:24:25;100417.38;;;6.57;100.00
56876;BME280;42622;49.972;8.452;2023-03-19T04:26:51;100421.63;;;6.59;100.00
56876;BME280;42622;49.972;8.452;2023-03-19T04:29:17;100417.22;;;6.60;100.00
56876;BME280;42622;49.972;8.452;2023-03-19T04:31:43;100419.94;;;6.58;100.00
56876;BME280;42622;49.972;8.452;2023-03-19T04:34:10;100418.25;;;6.57;100.00
56876;BME280;42622;49.972;8.452;2023-03-19T04:36:37;100414.84;;;6.55;100.00
56876;BME280;42622;49.972;8.452;2023-03-19T04:39:03;100418.25;;;6.57;100.00
56876;BME280;42622;49.972;8.452;2023-03-19T04:41:29;100409.59;;;6.55;100.00
56876;BME280;42622;49.972;8.452;2023-03-19T04:43:55;100414.84;;;6.55;100.00
56876;BME280;42622;49.972;8.452;2023-03-19T04:46:21;100428.13;;;6.52;100.00
56876;BME280;42622;49.972;8.452;2023-03-19T04:48:47;100420.56;;;6.46;100.00
56876;BME280;42622;49.972;8.452;2023-03-19T04:51:13;100437.25;;;6.45;100.00
56876;BME280;42622;49.972;8.452;2023-03-19T04:53:39;100440.66;;;6.47;100.00
56876;BME280;42622;49.972;8.452;2023-03-19T04:56:06;100432.94;;;6.44;100.00
56876;BME280;42622;49.972;8.452;2023-03-19T04:58:32;100433.94;;;6.41;100.00
56876;BME280;42622;49.972;8.452;2023-03-19T05:00:58;100429.75;;;6.37;100.00
56876;BME280;42622;49.972;8.452;2023-03-19T05:03:24;100424.91;;;6.30;100.00
56876;BME280;42622;49.972;8.452;2023-03-19T05:05:53;100429.53;;;6.25;100.00
56876;BME280;42622;49.972;8.452;2023-03-19T05:08:19;100428.13;;;6.17;100.00
56876;BME280;42622;49.972;8.452;2023-03-19T05:10:45;100432.63;;;6.15;100.00
56876;BME280;42622;49.972;8.452;2023-03-19T05:13:11;100441.56;;;6.11;100.00
56876;BME280;42622;49.972;8.452;2023-03-19T05:15:37;100446.97;;;6.08;100.00
56876;BME280;42622;49.972;8.452;2023-03-19T05:18:06;100445.81;;;6.14;100.00
56876;BME280;42622;49.972;8.452;2023-03-19T05:20:33;100453.00;;;6.28;100.00
56876;BME280;42622;49.972;8.452;2023-03-19T05:22:58;100449.59;;;6.43;100.00
56876;BME280;42622;49.972;8.452;2023-03-19T05:25:24;100447.91;;;6.59;100.00
56876;BME280;42622;49.972;8.452;2023-03-19T05:27:51;100448.03;;;6.74;100.00
56876;BME280;42622;49.972;8.452;2023-03-19T05:30:17;100450.97;;;6.85;100.00
56876;BME280;42622;49.972;8.452;2023-03-19T05:32:43;100448.88;;;6.91;100.00
56876;BME280;42622;49.972;8.452;2023-03-19T05:35:12;100444.59;;;6.89;100.00
56876;BME280;42622;49.972;8.452;2023-03-19T05:37:38;100446.94;;;6.95;100.00
56876;BME280;42622;49.972;8.452;2023-03-19T05:40:05;100457.44;;;6.95;100.00
56876;BME280;42622;49.972;8.452;2023-03-19T05:42:31;100459.69;;;6.85;100.00
56876;BME280;42622;49.972;8.452;2023-03-19T05:44:57;100459.19;;;6.79;100.00
56876;BME280;42622;49.972;8.452;2023-03-19T05:47:23;100467.97;;;6.78;100.00
56876;BME280;42622;49.972;8.452;2023-03-19T05:49:49;100466.13;;;6.80;100.00
56876;BME280;42622;49.972;8.452;2023-03-19T05:52:15;100461.97;;;6.76;100.00
56876;BME280;42622;49.972;8.452;2023-03-19T05:54:41;100468.81;;;6.78;100.00
56876;BME280;42622;49.972;8.452;2023-03-19T05:57:07;100480.34;;;6.76;100.00
56876;BME280;42622;49.972;8.452;2023-03-19T05:59:33;100475.31;;;6.71;100.00
56876;BME280;42622;49.972;8.452;2023-03-19T06:02:01;100484.06;;;6.72;100.00
56876;BME280;42622;49.972;8.452;2023-03-19T06:04:27;100479.72;;;6.70;100.00
56876;BME280;42622;49.972;8.452;2023-03-19T06:06:52;100477.94;;;6.71;100.00
56876;BME280;42622;49.972;8.452;2023-03-19T06:09:18;100483.19;;;6.71;100.00
56876;BME280;42622;49.972;8.452;2023-03-19T06:11:44;100487.31;;;6.77;100.00
56876;BME280;42622;49.972;8.452;2023-03-19T06:14:09;100487.31;;;6.77;100.00
56876;BME280;42622;49.972;8.452;2023-03-19T06:16:35;100491.56;;;6.79;100.00
56876;BME280;42622;49.972;8.452;2023-03-19T06:19:02;100492.16;;;6.84;100.00
56876;BME280;42622;49.972;8.452;2023-03-19T06:21:27;100488.38;;;6.90;100.00
56876;BME280;42622;49.972;8.452;2023-03-19T06:23:55;100495.00;;;6.97;100.00
56876;BME280;42622;49.972;8.452;2023-03-19T06:26:25;100499.03;;;7.04;100.00
56876;BME280;42622;49.972;8.452;2023-03-19T06:28:54;100506.41;;;7.13;100.00
56876;BME280;42622;49.972;8.452;2023-03-19T06:31:19;100499.84;;;7.22;100.00
56876;BME280;42622;49.972;8.452;2023-03-19T06:33:45;100517.59;;;7.34;100.00
56876;BME280;42622;49.972;8.452;2023-03-19T06:36:11;100502.31;;;7.41;100.00
56876;BME280;42622;49.972;8.452;2023-03-19T06:38:37;100506.31;;;7.48;100.00
56876;BME280;42622;49.972;8.452;2023-03-19T06:41:03;100510.94;;;7.60;100.00
56876;BME280;42622;49.972;8.452;2023-03-19T06:43:30;100504.06;;;7.74;100.00
56876;BME280;42622;49.972;8.452;2023-03-19T06:45:57;100504.50;;;7.82;100.00
56876;BME280;42622;49.972;8.452;2023-03-19T06:48:22;100497.88;;;7.90;100.00
56876;BME280;42622;49.972;8.452;2023-03-19T06:50:49;100505.00;;;8.04;100.00
56876;BME280;42622;49.972;8.452;2023-03-19T06:53:15;100507.88;;;8.15;100.00
56876;BME280;42622;49.972;8.452;2023-03-19T06:55:41;100502.66;;;8.30;100.00
56876;BME280;42622;49.972;8.452;2023-03-19T06:58:06;100502.88;;;8.43;100.00
56876;BME280;42622;49.972;8.452;2023-03-19T07:00:33;100504.09;;;8.51;100.00
56876;BME280;42622;49.972;8.452;2023-03-19T07:02:58;100505.44;;;8.58;100.00
56876;BME280;42622;49.972;8.452;2023-03-19T07:05:24;100513.00;;;8.65;100.00
56876;BME280;42622;49.972;8.452;2023-03-19T07:07:50;100511.88;;;8.69;100.00
56876;BME280;42622;49.972;8.452;2023-03-19T07:10:20;100514.94;;;8.77;100.00
56876;BME280;42622;49.972;8.452;2023-03-19T07:12:47;100514.50;;;8.99;100.00
56876;BME280;42622;49.972;8.452;2023-03-19T07:15:15;100520.09;;;9.23;100.00
56876;BME280;42622;49.972;8.452;2023-03-19T07:17:45;100534.88;;;9.40;100.00
56876;BME280;42622;49.972;8.452;2023-03-19T07:20:13;100536.84;;;9.50;100.00
56876;BME280;42622;49.972;8.452;2023-03-19T07:22:39;100542.03;;;9.52;100.00
56876;BME280;42622;49.972;8.452;2023-03-19T07:25:06;100540.44;;;9.49;100.00
56876;BME280;42622;49.972;8.452;2023-03-19T07:27:32;100544.22;;;9.45;100.00
56876;BME280;42622;49.972;8.452;2023-03-19T07:29:58;100534.69;;;9.43;100.00
56876;BME280;42622;49.972;8.452;2023-03-19T07:32:24;100541.03;;;9.40;100.00
56876;BME280;42622;49.972;8.452;2023-03-19T07:34:50;100538.38;;;9.40;100.00
56876;BME280;42622;49.972;8.452;2023-03-19T07:37:16;100539.22;;;9.41;100.00
56876;BME280;42622;49.972;8.452;2023-03-19T07:39:42;100547.03;;;9.42;100.00
56876;BME280;42622;49.972;8.452;2023-03-19T07:42:08;100551.00;;;9.49;100.00
56876;BME280;42622;49.972;8.452;2023-03-19T07:44:35;100546.00;;;9.59;100.00
56876;BME280;42622;49.972;8.452;2023-03-19T07:47:00;100555.91;;;9.70;100.00
56876;BME280;42622;49.972;8.452;2023-03-19T07:49:26;100538.44;;;9.81;100.00
56876;BME280;42622;49.972;8.452;2023-03-19T07:51:52;100538.69;;;10.05;100.00
56876;BME280;42622;49.972;8.452;2023-03-19T07:54:17;100539.47;;;10.35;100.00
56876;BME280;42622;49.972;8.452;2023-03-19T07:56:43;100550.97;;;11.00;100.00
56876;BME280;42622;49.972;8.452;2023-03-19T07:59:09;100558.91;;;11.77;100.00
56876;BME280;42622;49.972;8.452;2023-03-19T08:01:35;100549.53;;;12.58;100.00
56876;BME280;42622;49.972;8.452;2023-03-19T08:04:01;100560.75;;;12.85;100.00
56876;BME280;42622;49.972;8.452;2023-03-19T08:06:27;100561.88;;;12.94;100.00
56876;BME280;42622;49.972;8.452;2023-03-19T08:08:52;100561.66;;;13.08;100.00
56876;BME280;42622;49.972;8.452;2023-03-19T08:11:18;100563.78;;;13.27;100.00
56876;BME280;42622;49.972;8.452;2023-03-19T08:13:44;100570.31;;;13.34;100.00
56876;BME280;42622;49.972;8.452;2023-03-19T08:16:09;100566.34;;;13.40;100.00
56876;BME280;42622;49.972;8.452;2023-03-19T08:18:36;100567.66;;;13.34;100.00
56876;BME280;42622;49.972;8.452;2023-03-19T08:21:02;100570.81;;;13.51;100.00
56876;BME280;42622;49.972;8.452;2023-03-19T08:23:28;100567.69;;;13.68;100.00
56876;BME280;42622;49.972;8.452;2023-03-19T08:25:54;100571.69;;;13.96;100.00
56876;BME280;42622;49.972;8.452;2023-03-19T08:28:22;100581.41;;;14.29;100.00
56876;BME280;42622;49.972;8.452;2023-03-19T08:30:48;100575.78;;;14.98;100.00
56876;BME280;42622;49.972;8.452;2023-03-19T08:33:14;100583.63;;;15.42;100.00
56876;BME280;42622;49.972;8.452;2023-03-19T08:35:42;100576.53;;;15.73;100.00
56876;BME280;42622;49.972;8.452;2023-03-19T08:38:10;100574.53;;;15.75;99.13
56876;BME280;42622;49.972;8.452;2023-03-19T08:40:35;100578.25;;;15.84;96.46
56876;BME280;42622;49.972;8.452;2023-03-19T08:43:01;100581.16;;;16.21;91.72
56876;BME280;42622;49.972;8.452;2023-03-19T08:45:28;100577.00;;;16.47;90.38
56876;BME280;42622;49.972;8.452;2023-03-19T08:47:54;100572.94;;;16.53;87.77
56876;BME280;42622;49.972;8.452;2023-03-19T08:50:24;100560.25;;;16.36;85.88
56876;BME280;42622;49.972;8.452;2023-03-19T08:52:52;100571.06;;;16.24;86.17
56876;BME280;42622;49.972;8.452;2023-03-19T08:55:19;100570.03;;;16.76;85.42
56876;BME280;42622;49.972;8.452;2023-03-19T08:57:45;100560.41;;;17.31;81.47
56876;BME280;42622;49.972;8.452;2023-03-19T09:00:11;100557.72;;;17.88;76.70
56876;BME280;42622;49.972;8.452;2023-03-19T09:02:37;100555.78;;;18.08;72.60
56876;BME280;42622;49.972;8.452;2023-03-19T09:05:03;100553.88;;;18.18;72.11
56876;BME280;42622;49.972;8.452;2023-03-19T09:07:29;100555.44;;;17.93;69.74
56876;BME280;42622;49.972;8.452;2023-03-19T09:09:55;100558.59;;;17.79;70.60
56876;BME280;42622;49.972;8.452;2023-03-19T09:12:21;100557.31;;;18.10;69.17
56876;BME280;42622;49.972;8.452;2023-03-19T09:14:47;100554.50;;;18.30;68.10
56876;BME280;42622;49.972;8.452;2023-03-19T09:17:12;100554.81;;;18.27;67.13
56876;BME280;42622;49.972;8.452;2023-03-19T09:19:39;100552.13;;;17.81;68.38
56876;BME280;42622;49.972;8.452;2023-03-19T09:22:06;100553.81;;;17.26;69.08
56876;BME280;42622;49.972;8.452;2023-03-19T09:24:33;100556.69;;;16.76;71.26
56876;BME280;42622;49.972;8.452;2023-03-19T09:26:59;100557.88;;;16.42;72.53
56876;BME280;42622;49.972;8.452;2023-03-19T09:29:24;100561.22;;;16.25;74.84
56876;BME280;42622;49.972;8.452;2023-03-19T09:31:50;100562.63;;;16.19;76.35
56876;BME280;42622;49.972;8.452;2023-03-19T09:34:16;100563.75;;;16.17;76.70
56876;BME280;42622;49.972;8.452;2023-03-19T09:36:43;100573.81;;;15.94;76.41
56876;BME280;42622;49.972;8.452;2023-03-19T09:39:08;100567.47;;;15.64;77.70
56876;BME280;42622;49.972;8.452;2023-03-19T09:44:36;100576.47;;;15.21;82.28
56876;BME280;42622;49.972;8.452;2023-03-19T09:47:29;100570.13;;;15.13;83.60
56876;BME280;42622;49.972;8.452;2023-03-19T09:50:15;100573.63;;;15.13;84.61
56876;BME280;42622;49.972;8.452;2023-03-19T09:53:02;100579.91;;;15.12;85.21
56876;BME280;42622;49.972;8.452;2023-03-19T09:55:46;100578.41;;;15.19;85.71
56876;BME280;42622;49.972;8.452;2023-03-19T09:58:35;100582.72;;;15.32;86.13
56876;BME280;42622;49.972;8.452;2023-03-19T10:01:02;100576.78;;;15.49;85.14
56876;BME280;42622;49.972;8.452;2023-03-19T10:06:33;100567.50;;;16.93;81.49
56876;BME280;42622;49.972;8.452;2023-03-19T10:12:42;100572.97;;;18.51;67.17
56876;BME280;42622;49.972;8.452;2023-03-19T10:18:11;100577.19;;;17.71;67.70
56876;BME280;42622;49.972;8.452;2023-03-19T10:26:10;100567.72;;;18.13;65.52
56876;BME280;42622;49.972;8.452;2023-03-19T10:28:42;100567.78;;;18.49;64.92
56876;BME280;42622;49.972;8.452;2023-03-19T10:37:13;100570.97;;;18.80;60.75
56876;BME280;42622;49.972;8.452;2023-03-19T10:39:45;100568.38;;;18.43;61.04
56876;BME280;42622;49.972;8.452;2023-03-19T10:45:40;100575.81;;;17.57;63.30
56876;BME280;42622;49.972;8.452;2023-03-19T10:48:17;100579.00;;;17.13;64.07
56876;BME280;42622;49.972;8.452;2023-03-19T10:50:59;100576.63;;;16.91;64.93
56876;BME280;42622;49.972;8.452;2023-03-19T10:53:36;100579.75;;;16.86;66.08
56876;BME280;42622;49.972;8.452;2023-03-19T10:56:24;100586.63;;;16.79;66.63
56876;BME280;42622;49.972;8.452;2023-03-19T10:59:04;100585.72;;;16.49;66.77
56876;BME280;42622;49.972;8.452;2023-03-19T11:01:41;100597.91;;;16.33;68.02
56876;BME280;42622;49.972;8.452;2023-03-19T11:04:20;100593.25;;;16.15;69.14
56876;BME280;42622;49.972;8.452;2023-03-19T11:06:50;100589.59;;;16.16;70.04
56876;BME280;42622;49.972;8.452;2023-03-19T11:09:40;100591.53;;;16.14;70.32
56876;BME280;42622;49.972;8.452;2023-03-19T11:12:27;100587.44;;;16.10;70.99
56876;BME280;42622;49.972;8.452;2023-03-19T11:15:00;100592.56;;;16.42;72.58
56876;BME280;42622;49.972;8.452;2023-03-19T11:17:45;100580.00;;;16.83;74.17
56876;BME280;42622;49.972;8.452;2023-03-19T11:20:33;100586.56;;;17.28;73.75
56876;BME280;42622;49.972;8.452;2023-03-19T11:23:15;100588.72;;;17.71;69.42
56876;BME280;42622;49.972;8.452;2023-03-19T11:25:54;100592.06;;;17.83;65.89
56876;BME280;42622;49.972;8.452;2023-03-19T11:28:24;100591.34;;;17.90;62.81
56876;BME280;42622;49.972;8.452;2023-03-19T11:40:11;100581.50;;;16.47;66.09
56876;BME280;42622;49.972;8.452;2023-03-19T11:46:24;100580.06;;;16.43;66.66
56876;BME280;42622;49.972;8.452;2023-03-19T11:51:51;100572.69;;;16.06;67.68
56876;BME280;42622;49.972;8.452;2023-03-19T11:54:43;100567.31;;;15.87;68.12
56876;BME280;42622;49.972;8.452;2023-03-19T12:00:56;100563.34;;;16.31;68.63
56876;BME280;42622;49.972;8.452;2023-03-19T12:12:41;100552.31;;;16.65;63.97
56876;BME280;42622;49.972;8.452;2023-03-19T12:22:44;100556.97;;;16.03;69.71
56876;BME280;42622;49.972;8.452;2023-03-19T12:25:52;100569.53;;;15.82;73.67
56876;BME280;42622;49.972;8.452;2023-03-19T12:28:30;100576.22;;;15.66;75.89
56876;BME280;42622;49.972;8.452;2023-03-19T12:37:51;100564.06;;;15.32;87.82
56876;BME280;42622;49.972;8.452;2023-03-19T12:40:48;100571.16;;;15.21;92.41
56876;BME280;42622;49.972;8.452;2023-03-19T12:44:09;100565.50;;;15.15;95.49
56876;BME280;42622;49.972;8.452;2023-03-19T12:47:12;100575.13;;;15.06;98.53
56876;BME280;42622;49.972;8.452;2023-03-19T12:49:59;100581.47;;;14.94;100.00
56876;BME280;42622;49.972;8.452;2023-03-19T12:52:37;100592.09;;;14.94;100.00
56876;BME280;42622;49.972;8.452;2023-03-19T13:01:32;100584.91;;;14.30;100.00
56876;BME280;42622;49.972;8.452;2023-03-19T13:04:30;100585.94;;;14.06;100.00
56876;BME280;42622;49.972;8.452;2023-03-19T13:07:18;100595.94;;;13.80;100.00
56876;BME280;42622;49.972;8.452;2023-03-19T13:10:10;100591.94;;;13.41;100.00
56876;BME280;42622;49.972;8.452;2023-03-19T13:12:45;100595.09;;;13.11;100.00
56876;BME280;42622;49.972;8.452;2023-03-19T13:15:32;100590.06;;;12.84;100.00
56876;BME280;42622;49.972;8.452;2023-03-19T13:21:39;100579.84;;;12.66;100.00
56876;BME280;42622;49.972;8.452;2023-03-19T13:24:44;100585.03;;;12.68;100.00
56876;BME280;42622;49.972;8.452;2023-03-19T13:27:30;100585.03;;;12.68;100.00
56876;BME280;42622;49.972;8.452;2023-03-19T13:32:42;100588.59;;;12.56;100.00
56876;BME280;42622;49.972;8.452;2023-03-19T13:44:35;100597.94;;;12.12;100.00
56876;BME280;42622;49.972;8.452;2023-03-19T13:52:53;100600.34;;;11.53;100.00
56876;BME280;42622;49.972;8.452;2023-03-19T13:55:54;100606.22;;;11.31;100.00
56876;BME280;42622;49.972;8.452;2023-03-19T13:58:27;100601.34;;;11.12;100.00
56876;BME280;42622;49.972;8.452;2023-03-19T14:04:00;100603.53;;;10.92;100.00
56876;BME280;42622;49.972;8.452;2023-03-19T14:06:44;100591.38;;;10.90;100.00
56876;BME280;42622;49.972;8.452;2023-03-19T14:10:04;100588.97;;;10.99;100.00
56876;BME280;42622;49.972;8.452;2023-03-19T14:12:40;100597.75;;;11.13;100.00
56876;BME280;42622;49.972;8.452;2023-03-19T14:17:52;100583.69;;;11.25;100.00
56876;BME280;42622;49.972;8.452;2023-03-19T14:20:32;100579.56;;;11.34;100.00
56876;BME280;42622;49.972;8.452;2023-03-19T14:23:28;100581.16;;;11.36;100.00
56876;BME280;42622;49.972;8.452;2023-03-19T14:26:19;100574.50;;;11.43;100.00
56876;BME280;42622;49.972;8.452;2023-03-19T14:29:05;100569.94;;;11.45;100.00
56876;BME280;42622;49.972;8.452;2023-03-19T14:31:45;100570.47;;;11.51;100.00
56876;BME280;42622;49.972;8.452;2023-03-19T14:34:31;100565.47;;;11.59;100.00
56876;BME280;42622;49.972;8.452;2023-03-19T14:37:22;100568.66;;;11.64;100.00
56876;BME280;42622;49.972;8.452;2023-03-19T14:40:23;100567.28;;;11.71;100.00
56876;BME280;42622;49.972;8.452;2023-03-19T14:53:38;100550.94;;;12.03;100.00
56876;BME280;42622;49.972;8.452;2023-03-19T14:56:14;100552.47;;;12.18;100.00
56876;BME280;42622;49.972;8.452;2023-03-19T14:58:56;100541.13;;;12.40;100.00
56876;BME280;42622;49.972;8.452;2023-03-19T15:01:26;100546.00;;;12.70;100.00
56876;BME280;42622;49.972;8.452;2023-03-19T15:06:36;100544.16;;;13.06;100.00
56876;BME280;42622;49.972;8.452;2023-03-19T15:09:28;100546.75;;;13.19;100.00